sensor_id;sensor_type;location;lat;lon;timestamp;P1;P2;P0
21358;PMS7003;13506;50.852;20.632;2023-02-03T00:01:12;7.50;6.00;3.00
21358;PMS7003;13506;50.852;20.632;2023-02-03T00:03:41;7.00;5.25;1.50
21358;PMS7003;13506;50.852;20.632;2023-02-03T00:06:09;6.50;6.00;1.00
21358;PMS7003;13506;50.852;20.632;2023-02-03T00:08:37;6.50;5.50;1.50
21358;PMS7003;13506;50.852;20.632;2023-02-03T00:11:06;5.50;5.50;1.00
21358;PMS7003;13506;50.852;20.632;2023-02-03T00:13:34;5.75;5.75;3.00
21358;PMS7003;13506;50.852;20.632;2023-02-03T00:16:02;7.50;5.75;1.00
21358;PMS7003;13506;50.852;20.632;2023-02-03T00:18:33;6.00;4.50;1.00
21358;PMS7003;13506;50.852;20.632;2023-02-03T00:21:01;6.00;5.25;1.00
21358;PMS7003;13506;50.852;20.632;2023-02-03T00:23:30;4.00;4.00;1.00
21358;PMS7003;13506;50.852;20.632;2023-02-03T00:26:05;5.25;4.25;1.50
21358;PMS7003;13506;50.852;20.632;2023-02-03T00:28:33;6.00;6.00;3.00
21358;PMS7003;13506;50.852;20.632;2023-02-03T00:31:01;7.00;5.75;1.00
21358;PMS7003;13506;50.852;20.632;2023-02-03T00:33:29;5.25;5.25;1.00
21358;PMS7003;13506;50.852;20.632;2023-02-03T00:36:04;7.00;7.00;1.50
21358;PMS7003;13506;50.852;20.632;2023-02-03T00:38:32;6.00;6.00;2.50
21358;PMS7003;13506;50.852;20.632;2023-02-03T00:41:00;5.25;5.25;1.00
21358;PMS7003;13506;50.852;20.632;2023-02-03T00:43:28;5.75;5.75;1.00
21358;PMS7003;13506;50.852;20.632;2023-02-03T00:45:56;5.00;5.00;1.00
21358;PMS7003;13506;50.852;20.632;2023-02-03T00:48:24;8.00;5.25;1.00
21358;PMS7003;13506;50.852;20.632;2023-02-03T00:50:52;5.00;5.00;0.25
21358;PMS7003;13506;50.852;20.632;2023-02-03T00:53:21;5.25;5.25;1.00
21358;PMS7003;13506;50.852;20.632;2023-02-03T00:55:49;5.00;5.00;1.00
21358;PMS7003;13506;50.852;20.632;2023-02-03T00:58:17;4.50;4.00;1.00
21358;PMS7003;13506;50.852;20.632;2023-02-03T01:00:44;3.50;3.00;1.00
21358;PMS7003;13506;50.852;20.632;2023-02-03T01:03:13;6.50;5.25;1.00
21358;PMS7003;13506;50.852;20.632;2023-02-03T01:05:42;4.75;4.75;1.00
21358;PMS7003;13506;50.852;20.632;2023-02-03T01:08:10;7.50;7.50;3.00
21358;PMS7003;13506;50.852;20.632;2023-02-03T01:10:39;9.50;5.25;1.50
21358;PMS7003;13506;50.852;20.632;2023-02-03T01:13:07;6.00;4.75;1.00
21358;PMS7003;13506;50.852;20.632;2023-02-03T01:15:35;5.50;5.50;1.00
21358;PMS7003;13506;50.852;20.632;2023-02-03T01:18:03;4.50;4.00;2.00
21358;PMS7003;13506;50.852;20.632;2023-02-03T01:20:31;5.00;5.00;0.75
21358;PMS7003;13506;50.852;20.632;2023-02-03T01:22:58;5.00;5.00;1.00
21358;PMS7003;13506;50.852;20.632;2023-02-03T01:25:26;4.75;4.75;0.50
21358;PMS7003;13506;50.852;20.632;2023-02-03T01:27:55;6.00;4.00;1.00
21358;PMS7003;13506;50.852;20.632;2023-02-03T01:30:23;7.50;7.50;1.00
21358;PMS7003;13506;50.852;20.632;2023-02-03T01:32:51;5.25;5.25;1.00
21358;PMS7003;13506;50.852;20.632;2023-02-03T01:35:19;3.50;3.50;0.50
21358;PMS7003;13506;50.852;20.632;2023-02-03T01:37:47;5.75;5.75;1.50
21358;PMS7003;13506;50.852;20.632;2023-02-03T01:40:15;6.50;5.50;1.00
21358;PMS7003;13506;50.852;20.632;2023-02-03T01:42:43;7.00;4.75;1.00
21358;PMS7003;13506;50.852;20.632;2023-02-03T01:45:12;6.00;6.00;3.00
21358;PMS7003;13506;50.852;20.632;2023-02-03T01:47:42;4.00;4.00;2.00
21358;PMS7003;13506;50.852;20.632;2023-02-03T01:50:15;4.75;4.75;0.50
21358;PMS7003;13506;50.852;20.632;2023-02-03T01:52:48;4.75;4.75;1.00
21358;PMS7003;13506;50.852;20.632;2023-02-03T01:55:20;5.75;5.75;1.50
21358;PMS7003;13506;50.852;20.632;2023-02-03T01:57:56;5.00;5.00;1.00
21358;PMS7003;13506;50.852;20.632;2023-02-03T02:00:30;5.50;5.00;1.00
21358;PMS7003;13506;50.852;20.632;2023-02-03T02:02:58;8.00;5.75;1.00
21358;PMS7003;13506;50.852;20.632;2023-02-03T02:05:29;5.00;5.00;0.50
21358;PMS7003;13506;50.852;20.632;2023-02-03T02:08:00;10.00;5.75;1.00
21358;PMS7003;13506;50.852;20.632;2023-02-03T02:10:31;4.50;4.25;1.00
21358;PMS7003;13506;50.852;20.632;2023-02-03T02:12:59;5.00;5.00;0.25
21358;PMS7003;13506;50.852;20.632;2023-02-03T02:15:34;6.75;5.50;1.50
21358;PMS7003;13506;50.852;20.632;2023-02-03T02:18:17;8.75;6.00;1.50
21358;PMS7003;13506;50.852;20.632;2023-02-03T02:34:06;6.00;5.00;1.00
21358;PMS7003;13506;50.852;20.632;2023-02-03T02:36:47;7.00;4.75;0.00
21358;PMS7003;13506;50.852;20.632;2023-02-03T02:39:33;6.00;5.25;1.50
21358;PMS7003;13506;50.852;20.632;2023-02-03T02:42:13;3.00;3.00;0.00
21358;PMS7003;13506;50.852;20.632;2023-02-03T02:44:50;3.00;3.00;0.00
21358;PMS7003;13506;50.852;20.632;2023-02-03T02:47:24;3.50;3.50;1.00
21358;PMS7003;13506;50.852;20.632;2023-02-03T02:49:53;3.00;3.00;0.00
21358;PMS7003;13506;50.852;20.632;2023-02-03T02:52:27;7.50;5.75;1.50
21358;PMS7003;13506;50.852;20.632;2023-02-03T02:55:06;8.00;5.25;1.00
21358;PMS7003;13506;50.852;20.632;2023-02-03T02:57:37;3.00;3.00;0.00
21358;PMS7003;13506;50.852;20.632;2023-02-03T03:00:06;3.00;3.00;0.00
21358;PMS7003;13506;50.852;20.632;2023-02-03T03:02:37;5.00;4.00;0.00
21358;PMS7003;13506;50.852;20.632;2023-02-03T03:05:06;3.00;3.00;0.00
21358;PMS7003;13506;50.852;20.632;2023-02-03T03:07:44;4.00;4.00;0.25
21358;PMS7003;13506;50.852;20.632;2023-02-03T03:10:20;7.20;6.00;1.00
21358;PMS7003;13506;50.852;20.632;2023-02-03T03:12:53;5.50;5.50;1.00
21358;PMS7003;13506;50.852;20.632;2023-02-03T03:15:25;5.00;5.00;0.75
21358;PMS7003;13506;50.852;20.632;2023-02-03T03:17:59;5.00;5.00;1.00
21358;PMS7003;13506;50.852;20.632;2023-02-03T03:20:31;7.00;4.50;0.75
21358;PMS7003;13506;50.852;20.632;2023-02-03T03:23:05;6.00;6.00;0.00
21358;PMS7003;13506;50.852;20.632;2023-02-03T03:25:39;3.00;3.00;0.00
21358;PMS7003;13506;50.852;20.632;2023-02-03T03:28:12;5.00;5.00;1.00
21358;PMS7003;13506;50.852;20.632;2023-02-03T03:30:43;2.50;2.50;0.00
21358;PMS7003;13506;50.852;20.632;2023-02-03T03:33:12;3.50;3.50;1.00
21358;PMS7003;13506;50.852;20.632;2023-02-03T03:35:41;4.50;3.00;0.25
21358;PMS7003;13506;50.852;20.632;2023-02-03T03:38:23;4.00;4.00;1.00
21358;PMS7003;13506;50.852;20.632;2023-02-03T03:41:00;4.50;3.50;0.75
21358;PMS7003;13506;50.852;20.632;2023-02-03T03:43:34;5.00;5.00;1.00
21358;PMS7003;13506;50.852;20.632;2023-02-03T03:46:09;3.00;3.00;0.25
21358;PMS7003;13506;50.852;20.632;2023-02-03T03:48:44;5.00;5.00;0.00
21358;PMS7003;13506;50.852;20.632;2023-02-03T03:51:21;5.00;5.00;0.75
21358;PMS7003;13506;50.852;20.632;2023-02-03T03:53:53;3.00;3.00;1.00
21358;PMS7003;13506;50.852;20.632;2023-02-03T03:56:27;5.25;5.00;1.00
21358;PMS7003;13506;50.852;20.632;2023-02-03T03:59:02;5.50;3.00;0.00
21358;PMS7003;13506;50.852;20.632;2023-02-03T04:01:33;6.00;4.75;0.50
21358;PMS7003;13506;50.852;20.632;2023-02-03T04:04:04;3.00;3.00;0.00
21358;PMS7003;13506;50.852;20.632;2023-02-03T04:06:36;3.00;3.00;0.00
21358;PMS7003;13506;50.852;20.632;2023-02-03T04:09:05;3.50;3.00;0.00
21358;PMS7003;13506;50.852;20.632;2023-02-03T04:11:33;3.00;3.00;0.00
21358;PMS7003;13506;50.852;20.632;2023-02-03T04:14:19;3.00;3.00;0.00
21358;PMS7003;13506;50.852;20.632;2023-02-03T04:16:48;1.00;1.00;0.00
21358;PMS7003;13506;50.852;20.632;2023-02-03T04:19:17;3.00;3.00;0.00
21358;PMS7003;13506;50.852;20.632;2023-02-03T04:21:45;3.00;3.00;0.00
21358;PMS7003;13506;50.852;20.632;2023-02-03T04:24:13;5.00;3.00;0.00
21358;PMS7003;13506;50.852;20.632;2023-02-03T04:26:41;1.50;1.50;0.00
21358;PMS7003;13506;50.852;20.632;2023-02-03T04:29:09;3.00;3.00;0.00
21358;PMS7003;13506;50.852;20.632;2023-02-03T04:31:37;3.00;3.00;0.00
21358;PMS7003;13506;50.852;20.632;2023-02-03T04:34:05;3.00;2.50;0.00
21358;PMS7003;13506;50.852;20.632;2023-02-03T04:36:35;3.50;3.50;0.00
21358;PMS7003;13506;50.852;20.632;2023-02-03T04:39:02;3.50;3.00;1.00
21358;PMS7003;13506;50.852;20.632;2023-02-03T04:41:31;5.25;5.25;1.00
21358;PMS7003;13506;50.852;20.632;2023-02-03T04:43:59;5.00;5.00;1.00
21358;PMS7003;13506;50.852;20.632;2023-02-03T04:46:27;5.50;5.00;0.75
21358;PMS7003;13506;50.852;20.632;2023-02-03T04:48:55;3.00;3.00;0.75
21358;PMS7003;13506;50.852;20.632;2023-02-03T04:51:23;4.75;4.75;0.25
21358;PMS7003;13506;50.852;20.632;2023-02-03T04:53:53;5.25;5.00;1.00
21358;PMS7003;13506;50.852;20.632;2023-02-03T04:56:21;6.00;5.00;0.00
21358;PMS7003;13506;50.852;20.632;2023-02-03T04:58:49;5.00;5.00;0.75
21358;PMS7003;13506;50.852;20.632;2023-02-03T05:01:17;3.75;2.50;0.00
21358;PMS7003;13506;50.852;20.632;2023-02-03T05:03:45;7.50;6.00;1.00
21358;PMS7003;13506;50.852;20.632;2023-02-03T05:06:13;4.75;4.50;0.00
21358;PMS7003;13506;50.852;20.632;2023-02-03T05:08:41;5.75;5.00;1.00
21358;PMS7003;13506;50.852;20.632;2023-02-03T05:11:11;3.50;3.50;0.50
21358;PMS7003;13506;50.852;20.632;2023-02-03T05:13:39;4.00;4.00;0.75
21358;PMS7003;13506;50.852;20.632;2023-02-03T05:16:07;5.25;5.25;1.00
21358;PMS7003;13506;50.852;20.632;2023-02-03T05:18:35;7.00;7.00;1.00
21358;PMS7003;13506;50.852;20.632;2023-02-03T05:21:04;5.25;5.00;0.75
21358;PMS7003;13506;50.852;20.632;2023-02-03T05:23:32;8.25;6.00;0.75
21358;PMS7003;13506;50.852;20.632;2023-02-03T05:26:00;3.00;3.00;0.25
21358;PMS7003;13506;50.852;20.632;2023-02-03T05:28:29;5.25;5.25;1.00
21358;PMS7003;13506;50.852;20.632;2023-02-03T05:30:57;7.00;5.25;0.75
21358;PMS7003;13506;50.852;20.632;2023-02-03T05:33:25;8.00;6.00;1.00
21358;PMS7003;13506;50.852;20.632;2023-02-03T05:35:53;3.50;3.50;0.25
21358;PMS7003;13506;50.852;20.632;2023-02-03T05:38:21;3.00;3.00;0.75
21358;PMS7003;13506;50.852;20.632;2023-02-03T05:40:50;5.25;5.25;1.00
21358;PMS7003;13506;50.852;20.632;2023-02-03T05:43:37;3.50;3.00;0.25
21358;PMS7003;13506;50.852;20.632;2023-02-03T05:46:06;4.25;3.00;0.00
21358;PMS7003;13506;50.852;20.632;2023-02-03T05:48:34;5.50;4.75;0.75
21358;PMS7003;13506;50.852;20.632;2023-02-03T05:51:02;5.00;5.00;1.00
21358;PMS7003;13506;50.852;20.632;2023-02-03T05:53:30;3.00;3.00;0.00
21358;PMS7003;13506;50.852;20.632;2023-02-03T05:55:58;5.50;4.50;1.00
21358;PMS7003;13506;50.852;20.632;2023-02-03T05:58:26;4.25;4.00;0.00
21358;PMS7003;13506;50.852;20.632;2023-02-03T06:00:56;5.00;5.00;1.00
21358;PMS7003;13506;50.852;20.632;2023-02-03T06:03:23;3.50;3.50;1.00
21358;PMS7003;13506;50.852;20.632;2023-02-03T06:05:51;3.50;3.00;0.00
21358;PMS7003;13506;50.852;20.632;2023-02-03T06:08:19;19.20;15.00;8.00
21358;PMS7003;13506;50.852;20.632;2023-02-03T06:10:47;10.50;9.25;3.00
21358;PMS7003;13506;50.852;20.632;2023-02-03T06:13:15;5.00;4.75;0.75
21358;PMS7003;13506;50.852;20.632;2023-02-03T06:15:43;6.50;6.00;1.00
21358;PMS7003;13506;50.852;20.632;2023-02-03T06:18:12;6.00;6.00;2.00
21358;PMS7003;13506;50.852;20.632;2023-02-03T06:20:40;4.25;3.50;1.00
21358;PMS7003;13506;50.852;20.632;2023-02-03T06:23:08;4.50;4.50;0.00
21358;PMS7003;13506;50.852;20.632;2023-02-03T06:25:36;10.25;7.00;1.00
21358;PMS7003;13506;50.852;20.632;2023-02-03T06:28:04;8.00;6.00;1.50
21358;PMS7003;13506;50.852;20.632;2023-02-03T06:30:32;5.50;5.50;1.50
21358;PMS7003;13506;50.852;20.632;2023-02-03T06:33:00;5.00;5.00;1.00
21358;PMS7003;13506;50.852;20.632;2023-02-03T06:35:29;8.50;6.50;1.50
21358;PMS7003;13506;50.852;20.632;2023-02-03T06:37:57;6.00;5.00;1.00
21358;PMS7003;13506;50.852;20.632;2023-02-03T06:40:25;5.00;5.00;0.25
21358;PMS7003;13506;50.852;20.632;2023-02-03T06:42:53;9.00;8.00;3.00
21358;PMS7003;13506;50.852;20.632;2023-02-03T06:45:21;7.50;6.00;3.00
21358;PMS7003;13506;50.852;20.632;2023-02-03T06:47:49;8.00;8.00;3.00
21358;PMS7003;13506;50.852;20.632;2023-02-03T06:50:17;9.00;8.00;3.00
21358;PMS7003;13506;50.852;20.632;2023-02-03T06:52:47;6.00;6.00;3.00
21358;PMS7003;13506;50.852;20.632;2023-02-03T06:55:16;10.50;8.00;3.00
21358;PMS7003;13506;50.852;20.632;2023-02-03T06:57:44;6.00;6.00;3.00
21358;PMS7003;13506;50.852;20.632;2023-02-03T07:00:14;6.00;6.00;1.50
21358;PMS7003;13506;50.852;20.632;2023-02-03T07:02:44;7.00;6.00;3.00
21358;PMS7003;13506;50.852;20.632;2023-02-03T07:05:12;5.75;5.75;2.50
21358;PMS7003;13506;50.852;20.632;2023-02-03T07:07:40;10.50;9.00;3.50
21358;PMS7003;13506;50.852;20.632;2023-02-03T07:10:10;7.50;7.50;3.00
21358;PMS7003;13506;50.852;20.632;2023-02-03T07:12:38;8.50;8.00;4.00
21358;PMS7003;13506;50.852;20.632;2023-02-03T07:15:06;13.00;11.80;5.80
21358;PMS7003;13506;50.852;20.632;2023-02-03T07:17:35;11.20;9.40;5.20
21358;PMS7003;13506;50.852;20.632;2023-02-03T07:20:03;15.75;12.50;5.25
21358;PMS7003;13506;50.852;20.632;2023-02-03T07:22:32;12.00;11.80;5.80
21358;PMS7003;13506;50.852;20.632;2023-02-03T07:25:01;15.60;10.00;5.00
21358;PMS7003;13506;50.852;20.632;2023-02-03T07:27:30;15.00;13.50;5.00
21358;PMS7003;13506;50.852;20.632;2023-02-03T07:29:58;8.40;7.20;2.60
21358;PMS7003;13506;50.852;20.632;2023-02-03T07:32:26;10.40;10.40;5.00
21358;PMS7003;13506;50.852;20.632;2023-02-03T07:34:54;13.00;11.40;5.00
21358;PMS7003;13506;50.852;20.632;2023-02-03T07:37:22;9.25;8.00;3.00
21358;PMS7003;13506;50.852;20.632;2023-02-03T07:39:50;10.75;10.00;4.75
21358;PMS7003;13506;50.852;20.632;2023-02-03T07:42:18;13.50;13.00;5.25
21358;PMS7003;13506;50.852;20.632;2023-02-03T07:44:51;10.75;9.50;5.00
21358;PMS7003;13506;50.852;20.632;2023-02-03T07:47:19;9.80;8.00;3.40
21358;PMS7003;13506;50.852;20.632;2023-02-03T07:49:46;13.00;10.80;6.00
21358;PMS7003;13506;50.852;20.632;2023-02-03T07:52:14;12.50;9.75;5.00
21358;PMS7003;13506;50.852;20.632;2023-02-03T07:54:43;9.00;8.00;3.50
21358;PMS7003;13506;50.852;20.632;2023-02-03T07:57:10;11.25;8.25;3.25
21358;PMS7003;13506;50.852;20.632;2023-02-03T07:59:39;11.00;9.50;3.75
21358;PMS7003;13506;50.852;20.632;2023-02-03T08:02:08;12.50;10.00;3.50
21358;PMS7003;13506;50.852;20.632;2023-02-03T08:04:37;9.00;8.00;3.75
21358;PMS7003;13506;50.852;20.632;2023-02-03T08:07:04;6.50;5.50;1.50
21358;PMS7003;13506;50.852;20.632;2023-02-03T08:09:32;9.50;9.50;4.00
21358;PMS7003;13506;50.852;20.632;2023-02-03T08:12:00;6.00;6.00;2.50
21358;PMS7003;13506;50.852;20.632;2023-02-03T08:14:29;9.00;9.00;5.00
21358;PMS7003;13506;50.852;20.632;2023-02-03T08:16:56;8.00;8.00;3.00
21358;PMS7003;13506;50.852;20.632;2023-02-03T08:19:26;10.25;7.50;3.50
21358;PMS7003;13506;50.852;20.632;2023-02-03T08:21:53;7.00;6.00;3.00
21358;PMS7003;13506;50.852;20.632;2023-02-03T08:24:23;8.50;8.50;4.00
21358;PMS7003;13506;50.852;20.632;2023-02-03T08:26:51;7.00;7.00;3.00
21358;PMS7003;13506;50.852;20.632;2023-02-03T08:29:19;13.50;13.00;5.00
21358;PMS7003;13506;50.852;20.632;2023-02-03T08:31:47;8.75;8.75;3.00
21358;PMS7003;13506;50.852;20.632;2023-02-03T08:34:16;10.25;10.25;4.50
21358;PMS7003;13506;50.852;20.632;2023-02-03T08:36:45;7.00;6.50;3.00
21358;PMS7003;13506;50.852;20.632;2023-02-03T08:39:13;7.50;6.00;2.50
21358;PMS7003;13506;50.852;20.632;2023-02-03T08:41:41;9.75;8.25;3.00
21358;PMS7003;13506;50.852;20.632;2023-02-03T08:44:09;8.00;7.60;3.00
21358;PMS7003;13506;50.852;20.632;2023-02-03T08:46:36;10.00;9.00;3.00
21358;PMS7003;13506;50.852;20.632;2023-02-03T08:49:09;6.50;6.50;2.75
21358;PMS7003;13506;50.852;20.632;2023-02-03T08:51:36;13.00;10.50;4.00
21358;PMS7003;13506;50.852;20.632;2023-02-03T08:54:07;6.50;6.50;1.50
21358;PMS7003;13506;50.852;20.632;2023-02-03T08:56:35;9.00;9.00;3.50
21358;PMS7003;13506;50.852;20.632;2023-02-03T08:59:03;7.50;6.00;1.00
21358;PMS7003;13506;50.852;20.632;2023-02-03T09:01:31;6.00;6.00;1.50
21358;PMS7003;13506;50.852;20.632;2023-02-03T09:03:59;5.50;5.50;2.50
21358;PMS7003;13506;50.852;20.632;2023-02-03T09:06:28;5.50;5.50;2.00
21358;PMS7003;13506;50.852;20.632;2023-02-03T09:08:57;8.50;8.50;1.00
21358;PMS7003;13506;50.852;20.632;2023-02-03T09:11:26;6.00;6.00;2.50
21358;PMS7003;13506;50.852;20.632;2023-02-03T09:13:55;6.00;6.00;2.00
21358;PMS7003;13506;50.852;20.632;2023-02-03T09:16:23;7.00;7.00;3.00
21358;PMS7003;13506;50.852;20.632;2023-02-03T09:18:52;6.75;6.75;2.50
21358;PMS7003;13506;50.852;20.632;2023-02-03T09:21:20;11.00;9.75;5.25
21358;PMS7003;13506;50.852;20.632;2023-02-03T09:23:49;13.00;9.75;3.50
21358;PMS7003;13506;50.852;20.632;2023-02-03T09:26:16;9.00;7.00;1.00
21358;PMS7003;13506;50.852;20.632;2023-02-03T09:28:46;12.50;11.00;5.25
21358;PMS7003;13506;50.852;20.632;2023-02-03T09:31:14;6.00;6.00;2.50
21358;PMS7003;13506;50.852;20.632;2023-02-03T09:33:44;13.50;10.50;5.50
21358;PMS7003;13506;50.852;20.632;2023-02-03T09:36:12;11.00;10.00;3.50
21358;PMS7003;13506;50.852;20.632;2023-02-03T09:38:40;9.25;9.25;3.00
21358;PMS7003;13506;50.852;20.632;2023-02-03T09:41:12;10.33;8.00;3.00
21358;PMS7003;13506;50.852;20.632;2023-02-03T09:43:59;8.75;8.00;3.75
21358;PMS7003;13506;50.852;20.632;2023-02-03T09:46:34;6.50;6.00;3.00
21358;PMS7003;13506;50.852;20.632;2023-02-03T09:49:10;11.50;9.00;3.00
21358;PMS7003;13506;50.852;20.632;2023-02-03T09:51:43;7.00;6.00;2.50
21358;PMS7003;13506;50.852;20.632;2023-02-03T09:54:17;11.75;8.50;5.00
21358;PMS7003;13506;50.852;20.632;2023-02-03T09:56:49;8.00;8.00;3.00
21358;PMS7003;13506;50.852;20.632;2023-02-03T09:59:22;7.00;6.00;3.00
21358;PMS7003;13506;50.852;20.632;2023-02-03T10:01:52;16.00;11.00;5.00
21358;PMS7003;13506;50.852;20.632;2023-02-03T10:04:29;14.00;11.00;5.75
21358;PMS7003;13506;50.852;20.632;2023-02-03T10:07:06;11.25;10.75;5.75
21358;PMS7003;13506;50.852;20.632;2023-02-03T10:09:49;6.50;6.50;2.00
21358;PMS7003;13506;50.852;20.632;2023-02-03T10:12:37;7.50;7.50;3.00
21358;PMS7003;13506;50.852;20.632;2023-02-03T10:15:26;10.00;9.25;3.25
21358;PMS7003;13506;50.852;20.632;2023-02-03T10:18:15;14.25;10.00;4.50
21358;PMS7003;13506;50.852;20.632;2023-02-03T10:20:48;9.75;9.50;4.50
21358;PMS7003;13506;50.852;20.632;2023-02-03T10:23:21;10.25;10.25;4.50
21358;PMS7003;13506;50.852;20.632;2023-02-03T10:25:55;11.50;9.00;3.00
21358;PMS7003;13506;50.852;20.632;2023-02-03T10:28:26;16.00;12.50;4.75
21358;PMS7003;13506;50.852;20.632;2023-02-03T10:30:59;16.00;13.00;8.00
21358;PMS7003;13506;50.852;20.632;2023-02-03T10:33:34;10.75;9.25;3.50
21358;PMS7003;13506;50.852;20.632;2023-02-03T10:36:03;15.50;14.00;6.00
21358;PMS7003;13506;50.852;20.632;2023-02-03T10:38:45;13.25;11.25;6.00
21358;PMS7003;13506;50.852;20.632;2023-02-03T10:41:25;10.00;10.00;5.00
21358;PMS7003;13506;50.852;20.632;2023-02-03T10:43:56;15.00;11.75;5.25
21358;PMS7003;13506;50.852;20.632;2023-02-03T10:46:29;13.00;10.75;5.00
21358;PMS7003;13506;50.852;20.632;2023-02-03T10:49:00;13.50;10.25;5.50
21358;PMS7003;13506;50.852;20.632;2023-02-03T10:51:29;12.50;10.50;6.00
21358;PMS7003;13506;50.852;20.632;2023-02-03T10:54:02;11.00;11.00;5.25
21358;PMS7003;13506;50.852;20.632;2023-02-03T10:56:31;13.50;11.00;6.50
21358;PMS7003;13506;50.852;20.632;2023-02-03T10:59:03;9.00;9.00;4.50
21358;PMS7003;13506;50.852;20.632;2023-02-03T11:01:39;11.75;11.75;6.50
21358;PMS7003;13506;50.852;20.632;2023-02-03T11:04:21;15.00;12.00;6.00
21358;PMS7003;13506;50.852;20.632;2023-02-03T11:06:53;13.50;12.75;7.00
21358;PMS7003;13506;50.852;20.632;2023-02-03T11:09:38;12.75;11.75;5.25
21358;PMS7003;13506;50.852;20.632;2023-02-03T11:12:11;16.50;10.50;6.00
21358;PMS7003;13506;50.852;20.632;2023-02-03T11:14:41;15.00;15.00;7.00
21358;PMS7003;13506;50.852;20.632;2023-02-03T11:17:14;11.25;9.50;5.00
21358;PMS7003;13506;50.852;20.632;2023-02-03T11:19:44;11.25;11.25;6.00
21358;PMS7003;13506;50.852;20.632;2023-02-03T11:22:24;13.00;11.75;7.00
21358;PMS7003;13506;50.852;20.632;2023-02-03T11:24:55;18.50;11.00;5.50
21358;PMS7003;13506;50.852;20.632;2023-02-03T11:27:25;14.50;12.25;5.50
21358;PMS7003;13506;50.852;20.632;2023-02-03T11:30:06;11.75;11.75;5.75
21358;PMS7003;13506;50.852;20.632;2023-02-03T11:32:42;14.00;13.00;6.50
21358;PMS7003;13506;50.852;20.632;2023-02-03T11:35:13;11.75;11.75;5.75
21358;PMS7003;13506;50.852;20.632;2023-02-03T11:37:45;11.00;11.00;5.25
21358;PMS7003;13506;50.852;20.632;2023-02-03T11:40:25;22.75;15.75;5.50
21358;PMS7003;13506;50.852;20.632;2023-02-03T11:43:01;14.75;12.50;5.00
21358;PMS7003;13506;50.852;20.632;2023-02-03T11:45:36;14.50;13.25;7.00
21358;PMS7003;13506;50.852;20.632;2023-02-03T11:48:21;14.00;9.00;5.00
21358;PMS7003;13506;50.852;20.632;2023-02-03T11:50:59;15.25;13.50;5.25
21358;PMS7003;13506;50.852;20.632;2023-02-03T11:53:39;18.50;15.50;10.00
21358;PMS7003;13506;50.852;20.632;2023-02-03T11:56:29;16.50;13.50;5.25
21358;PMS7003;13506;50.852;20.632;2023-02-03T11:59:12;16.00;14.00;6.40
21358;PMS7003;13506;50.852;20.632;2023-02-03T12:02:16;15.60;14.80;6.00
21358;PMS7003;13506;50.852;20.632;2023-02-03T12:05:37;15.25;13.50;6.00
21358;PMS7003;13506;50.852;20.632;2023-02-03T12:08:22;21.80;18.80;11.00
21358;PMS7003;13506;50.852;20.632;2023-02-03T12:11:03;20.00;15.00;6.00
21358;PMS7003;13506;50.852;20.632;2023-02-03T12:13:47;17.40;13.00;7.60
21358;PMS7003;13506;50.852;20.632;2023-02-03T12:16:34;22.25;18.00;10.25
21358;PMS7003;13506;50.852;20.632;2023-02-03T12:19:27;22.25;17.75;10.75
21358;PMS7003;13506;50.852;20.632;2023-02-03T12:22:09;18.75;15.00;9.00
21358;PMS7003;13506;50.852;20.632;2023-02-03T12:24:48;18.50;14.50;7.50
21358;PMS7003;13506;50.852;20.632;2023-02-03T12:27:28;19.00;18.00;9.25
21358;PMS7003;13506;50.852;20.632;2023-02-03T12:30:13;22.25;20.75;11.75
21358;PMS7003;13506;50.852;20.632;2023-02-03T12:32:46;12.75;11.75;5.25
21358;PMS7003;13506;50.852;20.632;2023-02-03T12:35:20;18.75;15.75;8.50
21358;PMS7003;13506;50.852;20.632;2023-02-03T12:37:55;28.80;21.20;11.40
21358;PMS7003;13506;50.852;20.632;2023-02-03T12:40:33;18.00;18.00;10.00
21358;PMS7003;13506;50.852;20.632;2023-02-03T12:43:08;11.75;11.50;5.00
21358;PMS7003;13506;50.852;20.632;2023-02-03T12:45:51;23.25;19.75;9.75
21358;PMS7003;13506;50.852;20.632;2023-02-03T12:48:24;13.50;11.75;6.75
21358;PMS7003;13506;50.852;20.632;2023-02-03T12:51:09;17.50;14.00;9.00
21358;PMS7003;13506;50.852;20.632;2023-02-03T12:53:44;18.00;17.00;8.00
21358;PMS7003;13506;50.852;20.632;2023-02-03T12:56:19;17.25;15.50;8.00
21358;PMS7003;13506;50.852;20.632;2023-02-03T12:58:53;15.25;11.75;6.00
21358;PMS7003;13506;50.852;20.632;2023-02-03T13:01:27;14.75;13.50;6.00
21358;PMS7003;13506;50.852;20.632;2023-02-03T13:04:03;17.25;12.25;6.00
21358;PMS7003;13506;50.852;20.632;2023-02-03T13:06:37;10.00;10.00;4.75
21358;PMS7003;13506;50.852;20.632;2023-02-03T13:09:20;16.75;16.50;9.00
21358;PMS7003;13506;50.852;20.632;2023-02-03T13:11:55;15.00;15.00;6.00
21358;PMS7003;13506;50.852;20.632;2023-02-03T13:14:30;14.50;12.25;5.00
21358;PMS7003;13506;50.852;20.632;2023-02-03T13:17:05;15.00;12.75;6.25
21358;PMS7003;13506;50.852;20.632;2023-02-03T13:19:40;12.50;8.50;5.00
21358;PMS7003;13506;50.852;20.632;2023-02-03T13:22:12;17.00;13.25;5.25
21358;PMS7003;13506;50.852;20.632;2023-02-03T13:24:44;12.00;9.25;5.25
21358;PMS7003;13506;50.852;20.632;2023-02-03T13:27:19;12.50;11.00;5.75
21358;PMS7003;13506;50.852;20.632;2023-02-03T13:39:47;12.25;11.25;5.25
21358;PMS7003;13506;50.852;20.632;2023-02-03T13:42:26;13.25;9.50;5.00
21358;PMS7003;13506;50.852;20.632;2023-02-03T13:44:57;11.00;8.40;4.60
21358;PMS7003;13506;50.852;20.632;2023-02-03T13:47:35;8.50;7.25;2.00
21358;PMS7003;13506;50.852;20.632;2023-02-03T13:50:05;9.00;9.00;5.00
21358;PMS7003;13506;50.852;20.632;2023-02-03T13:52:44;8.50;8.50;4.00
21358;PMS7003;13506;50.852;20.632;2023-02-03T13:55:32;9.00;7.75;3.00
21358;PMS7003;13506;50.852;20.632;2023-02-03T13:58:04;14.00;13.00;6.25
21358;PMS7003;13506;50.852;20.632;2023-02-03T14:01:01;7.50;7.00;3.50
21358;PMS7003;13506;50.852;20.632;2023-02-03T14:03:48;10.50;10.50;5.25
21358;PMS7003;13506;50.852;20.632;2023-02-03T14:09:36;10.50;9.00;5.00
21358;PMS7003;13506;50.852;20.632;2023-02-03T14:12:20;22.80;18.00;10.00
21358;PMS7003;13506;50.852;20.632;2023-02-03T14:15:00;8.50;8.50;3.00
21358;PMS7003;13506;50.852;20.632;2023-02-03T14:21:08;16.00;15.60;7.60
21358;PMS7003;13506;50.852;20.632;2023-02-03T14:23:45;11.50;9.50;3.00
21358;PMS7003;13506;50.852;20.632;2023-02-03T14:26:32;14.75;12.00;6.50
21358;PMS7003;13506;50.852;20.632;2023-02-03T14:29:08;10.25;7.75;3.25
21358;PMS7003;13506;50.852;20.632;2023-02-03T14:31:51;12.50;11.00;4.50
21358;PMS7003;13506;50.852;20.632;2023-02-03T14:34:34;19.50;16.50;8.00
21358;PMS7003;13506;50.852;20.632;2023-02-03T14:37:09;11.00;8.50;3.00
21358;PMS7003;13506;50.852;20.632;2023-02-03T14:43:01;12.00;11.50;5.00
21358;PMS7003;13506;50.852;20.632;2023-02-03T14:52:03;10.00;10.00;3.00
21358;PMS7003;13506;50.852;20.632;2023-02-03T14:54:57;11.00;11.00;3.50
21358;PMS7003;13506;50.852;20.632;2023-02-03T14:57:46;15.40;12.80;5.00
21358;PMS7003;13506;50.852;20.632;2023-02-03T15:00:26;12.25;9.50;5.00
21358;PMS7003;13506;50.852;20.632;2023-02-03T15:03:19;13.00;12.25;5.50
21358;PMS7003;13506;50.852;20.632;2023-02-03T15:05:55;21.40;16.80;9.60
21358;PMS7003;13506;50.852;20.632;2023-02-03T15:08:31;11.00;10.00;5.00
21358;PMS7003;13506;50.852;20.632;2023-02-03T15:11:28;9.50;7.50;4.00